createdAt,value
2022-08-21T00:00:19.098Z,99.90
2022-08-21T00:02:58.647Z,99.90
2022-08-21T00:05:26.961Z,99.90
2022-08-21T00:07:53.683Z,99.90
2022-08-21T00:10:20.862Z,99.90
2022-08-21T00:12:48.210Z,99.90
2022-08-21T00:15:20.707Z,99.90
2022-08-21T00:17:47.452Z,99.90
2022-08-21T00:20:16.591Z,99.90
2022-08-21T00:22:43.696Z,99.90
2022-08-21T00:25:11.543Z,99.90
2022-08-21T00:27:39.013Z,99.90
2022-08-21T00:30:07.887Z,99.90
2022-08-21T00:32:36.647Z,99.90
2022-08-21T00:35:04.541Z,99.90
2022-08-21T00:37:31.183Z,99.90
2022-08-21T00:40:02.320Z,99.90
2022-08-21T00:42:31.154Z,99.90
2022-08-21T00:44:58.598Z,99.90
2022-08-21T00:47:25.312Z,99.90
2022-08-21T00:49:52.528Z,99.90
2022-08-21T00:52:25.443Z,99.90
2022-08-21T00:54:52.811Z,99.90
2022-08-21T00:57:29.716Z,99.90
2022-08-21T00:59:59.250Z,99.90
2022-08-21T01:02:26.650Z,99.90
2022-08-21T01:04:53.644Z,99.90
2022-08-21T01:07:21.026Z,99.90
2022-08-21T01:09:49.774Z,99.90
2022-08-21T01:12:16.919Z,99.90
2022-08-21T01:14:44.259Z,99.90
2022-08-21T01:17:16.516Z,99.90
2022-08-21T01:19:43.709Z,99.90
2022-08-21T01:22:10.899Z,99.90
2022-08-21T01:24:37.895Z,99.90
2022-08-21T01:27:04.729Z,99.90
2022-08-21T01:29:52.002Z,99.90
2022-08-21T01:32:20.840Z,99.90
2022-08-21T01:34:49.555Z,99.90
2022-08-21T01:37:17.887Z,99.90
2022-08-21T01:39:45.422Z,99.90
2022-08-21T01:42:14.127Z,99.90
2022-08-21T01:44:41.664Z,99.90
2022-08-21T01:47:11.091Z,99.90
2022-08-21T01:49:39.495Z,99.90
2022-08-21T01:52:06.931Z,99.90
2022-08-21T01:54:36.946Z,99.90
2022-08-21T01:57:04.763Z,99.90
2022-08-21T01:59:31.811Z,99.90
2022-08-21T02:01:58.467Z,99.90
2022-08-21T02:04:25.567Z,99.90
2022-08-21T02:06:52.493Z,99.90
2022-08-21T02:09:20.510Z,99.90
2022-08-21T02:11:47.140Z,99.90
2022-08-21T02:14:15.472Z,99.90
2022-08-21T02:17:05.436Z,99.90
2022-08-21T02:19:40.198Z,99.90
2022-08-21T02:22:10.452Z,99.90
2022-08-21T02:24:38.551Z,99.90
2022-08-21T02:27:25.989Z,99.90
2022-08-21T02:29:53.062Z,99.90
2022-08-21T02:32:19.689Z,99.90
2022-08-21T02:34:46.328Z,99.90
2022-08-21T02:37:13.567Z,99.90
2022-08-21T02:39:40.306Z,99.90
2022-08-21T02:42:07.068Z,99.90
2022-08-21T02:44:34.725Z,99.90
2022-08-21T02:47:01.696Z,99.90
2022-08-21T02:49:28.286Z,99.90
2022-08-21T02:51:54.902Z,99.90
2022-08-21T02:54:22.067Z,99.90
2022-08-21T02:56:48.676Z,99.90
2022-08-21T02:59:15.365Z,99.90
2022-08-21T03:01:41.992Z,99.90
2022-08-21T03:04:08.627Z,99.90
2022-08-21T03:06:35.219Z,99.90
2022-08-21T03:09:01.808Z,99.90
2022-08-21T03:11:28.485Z,99.90
2022-08-21T03:13:55.112Z,99.90
2022-08-21T03:16:21.897Z,99.90
2022-08-21T03:18:48.620Z,99.90
2022-08-21T03:21:15.410Z,99.90
2022-08-21T03:23:42.985Z,99.90
2022-08-21T03:26:12.021Z,99.90
2022-08-21T03:28:38.916Z,99.90
2022-08-21T03:31:06.590Z,99.90
2022-08-21T03:33:33.384Z,99.90
2022-08-21T03:36:05.333Z,99.90
2022-08-21T03:38:33.881Z,99.90
2022-08-21T03:41:01.610Z,99.90
2022-08-21T03:43:32.169Z,99.90
2022-08-21T03:46:04.413Z,99.90
2022-08-21T03:48:31.597Z,99.90
2022-08-21T03:50:58.407Z,99.90
2022-08-21T03:53:26.058Z,99.90
2022-08-21T03:55:53.591Z,99.90
2022-08-21T03:58:22.859Z,99.90
2022-08-21T04:00:53.176Z,99.90
2022-08-21T04:03:20.805Z,99.90
2022-08-21T04:05:47.697Z,99.90
2022-08-21T04:08:19.458Z,99.90
2022-08-21T04:10:49.411Z,99.90
2022-08-21T04:13:16.148Z,99.90
2022-08-21T04:15:43.484Z,99.90
2022-08-21T04:18:10.799Z,99.90
2022-08-21T04:20:37.646Z,99.90
2022-08-21T04:23:04.748Z,99.90
2022-08-21T04:25:31.490Z,99.90
2022-08-21T04:27:58.253Z,99.90
2022-08-21T04:30:28.200Z,99.90
2022-08-21T04:32:57.351Z,99.90
2022-08-21T04:35:26.379Z,99.90
2022-08-21T04:37:53.089Z,99.90
2022-08-21T04:40:22.395Z,99.90
2022-08-21T04:42:51.925Z,99.90
2022-08-21T04:45:28.251Z,99.90
2022-08-21T04:47:57.668Z,99.90
2022-08-21T04:50:39.488Z,99.90
2022-08-21T04:53:19.413Z,99.90
2022-08-21T04:55:46.756Z,99.90
2022-08-21T04:58:15.967Z,99.90
2022-08-21T05:00:43.036Z,99.90
2022-08-21T05:03:11.720Z,99.90
2022-08-21T05:05:39.303Z,99.90
2022-08-21T05:08:08.548Z,99.90
2022-08-21T05:10:35.339Z,99.90
2022-08-21T05:13:02.158Z,99.90
2022-08-21T05:15:29.007Z,99.90
2022-08-21T05:18:00.645Z,99.90
2022-08-21T05:20:28.791Z,99.90
2022-08-21T05:22:55.524Z,99.90
2022-08-21T05:25:23.875Z,99.90
2022-08-21T05:27:52.193Z,99.90
2022-08-21T05:30:20.694Z,99.90
2022-08-21T05:32:48.529Z,99.90
2022-08-21T05:35:15.573Z,99.90
2022-08-21T05:37:42.204Z,99.90
2022-08-21T05:40:21.350Z,99.90
2022-08-21T05:42:54.498Z,99.90
2022-08-21T05:45:42.320Z,99.90
2022-08-21T05:48:14.504Z,99.90
2022-08-21T05:50:42.436Z,99.90
2022-08-21T05:53:10.579Z,99.90
2022-08-21T05:55:41.521Z,99.90
2022-08-21T05:58:11.671Z,99.90
2022-08-21T06:00:38.509Z,99.90
2022-08-21T06:03:05.479Z,99.90
2022-08-21T06:05:37.110Z,99.90
2022-08-21T06:08:05.151Z,99.90
2022-08-21T06:10:32.117Z,99.90
2022-08-21T06:12:59.044Z,99.90
2022-08-21T06:15:25.832Z,99.90
2022-08-21T06:17:54.139Z,99.90
2022-08-21T06:20:21.110Z,99.90
2022-08-21T06:22:47.866Z,99.90
2022-08-21T06:25:14.544Z,99.90
2022-08-21T06:27:41.320Z,99.90
2022-08-21T06:30:08.785Z,99.90
2022-08-21T06:32:36.129Z,99.90
2022-08-21T06:35:03.571Z,99.90
2022-08-21T06:37:30.262Z,99.90
2022-08-21T06:39:56.930Z,99.90
2022-08-21T06:42:27.929Z,99.90
2022-08-21T06:44:54.765Z,99.90
2022-08-21T06:47:21.392Z,99.90
2022-08-21T06:49:47.958Z,99.90
2022-08-21T06:52:14.735Z,99.90
2022-08-21T06:54:41.674Z,99.90
2022-08-21T06:57:08.620Z,99.90
2022-08-21T06:59:35.718Z,99.90
2022-08-21T07:02:02.544Z,99.90
2022-08-21T07:04:29.232Z,99.90
2022-08-21T07:06:55.885Z,99.90
2022-08-21T07:09:24.645Z,99.90
2022-08-21T07:11:55.826Z,99.90
2022-08-21T07:14:23.019Z,99.90
2022-08-21T07:16:51.634Z,99.90
2022-08-21T07:19:19.274Z,99.90
2022-08-21T07:21:46.196Z,99.90
2022-08-21T07:24:12.971Z,99.90
2022-08-21T07:26:40.298Z,99.90
2022-08-21T07:29:06.899Z,99.90
2022-08-21T07:31:33.599Z,99.90
2022-08-21T07:34:00.216Z,99.90
2022-08-21T07:36:26.827Z,99.90
2022-08-21T07:38:53.456Z,99.90
2022-08-21T07:41:23.914Z,99.90
2022-08-21T07:43:52.854Z,99.90
2022-08-21T07:46:20.458Z,99.90
2022-08-21T07:48:47.147Z,99.90
2022-08-21T07:51:15.938Z,99.90
2022-08-21T07:53:42.726Z,99.90
2022-08-21T07:56:11.920Z,99.90
2022-08-21T07:58:38.836Z,99.90
2022-08-21T08:01:07.444Z,99.90
2022-08-21T08:03:34.641Z,99.90
2022-08-21T08:06:01.414Z,99.90
2022-08-21T08:08:29.050Z,99.90
2022-08-21T08:10:58.356Z,99.90
2022-08-21T08:13:25.581Z,99.90
2022-08-21T08:15:52.491Z,99.90
2022-08-21T08:18:19.274Z,99.90
2022-08-21T08:20:45.925Z,99.90
2022-08-21T08:23:14.253Z,99.90
2022-08-21T08:25:41.301Z,99.90
2022-08-21T08:28:17.035Z,99.90
2022-08-21T08:30:46.405Z,99.90
2022-08-21T08:33:13.680Z,99.90
2022-08-21T08:35:48.491Z,99.90
2022-08-21T08:38:20.818Z,99.90
2022-08-21T08:41:30.622Z,99.90
2022-08-21T08:44:03.611Z,99.90
2022-08-21T08:46:40.217Z,99.90
2022-08-21T08:49:19.548Z,99.90
2022-08-21T08:51:58.522Z,99.90
2022-08-21T08:54:43.605Z,99.90
2022-08-21T08:57:16.472Z,99.90
2022-08-21T08:59:47.762Z,99.90
2022-08-21T09:02:17.436Z,99.90
2022-08-21T09:04:46.188Z,99.90
2022-08-21T09:07:40.968Z,99.30
2022-08-21T09:10:13.096Z,98.80
2022-08-21T09:12:46.441Z,99.00
2022-08-21T09:15:43.484Z,98.60
2022-08-21T09:18:21.913Z,98.50
2022-08-21T09:20:58.666Z,97.70
2022-08-21T09:23:47.774Z,97.70
2022-08-21T09:26:17.799Z,97.00
2022-08-21T09:28:45.893Z,96.80
2022-08-21T09:31:22.800Z,96.70
2022-08-21T09:33:49.461Z,96.90
2022-08-21T09:36:38.654Z,97.60
2022-08-21T09:39:06.141Z,96.80
2022-08-21T09:41:36.463Z,96.80
2022-08-21T09:44:04.882Z,96.70
2022-08-21T09:46:31.723Z,97.10
2022-08-21T09:49:02.267Z,97.40
2022-08-21T09:51:37.891Z,97.70
2022-08-21T09:54:07.709Z,96.20
2022-08-21T09:56:59.632Z,95.90
2022-08-21T09:59:37.065Z,95.70
2022-08-21T10:02:28.354Z,96.10
2022-08-21T10:05:23.758Z,96.50
2022-08-21T10:07:50.998Z,95.50
2022-08-21T10:10:29.194Z,95.20
2022-08-21T10:13:11.355Z,95.60
2022-08-21T10:16:01.981Z,94.40
2022-08-21T10:18:36.147Z,94.60
2022-08-21T10:21:28.320Z,94.30
2022-08-21T10:24:31.179Z,93.30
2022-08-21T10:27:08.592Z,93.20
2022-08-21T10:29:51.328Z,93.40
2022-08-21T10:32:53.692Z,92.40
2022-08-21T10:35:31.259Z,92.00
2022-08-21T10:38:55.270Z,91.20
2022-08-21T10:41:55.252Z,91.90
2022-08-21T10:44:55.108Z,91.50
2022-08-21T10:47:49.344Z,91.20
2022-08-21T10:50:46.623Z,89.50
2022-08-21T10:53:37.698Z,89.90
2022-08-21T10:56:22.683Z,89.10
2022-08-21T10:59:12.977Z,88.30
2022-08-21T11:01:49.484Z,85.60
2022-08-21T11:04:43.374Z,84.90
2022-08-21T11:07:46.375Z,85.50
2022-08-21T11:10:28.511Z,85.30
2022-08-21T11:13:40.244Z,83.70
2022-08-21T11:16:17.060Z,83.10
2022-08-21T11:18:54.526Z,83.00
2022-08-21T11:21:39.000Z,81.90
2022-08-21T11:24:18.120Z,83.70
2022-08-21T11:26:52.634Z,81.50
2022-08-21T11:29:24.549Z,77.90
2022-08-21T11:32:12.709Z,77.40
2022-08-21T11:35:08.793Z,78.10
2022-08-21T11:37:53.845Z,73.60
2022-08-21T11:40:40.600Z,71.60
2022-08-21T11:43:34.568Z,67.50
2022-08-21T11:46:27.515Z,68.30
2022-08-21T11:49:23.459Z,64.50
2022-08-21T11:52:14.905Z,65.40
2022-08-21T11:54:56.728Z,67.20
2022-08-21T11:57:40.003Z,67.30
2022-08-21T12:00:24.158Z,66.00
2022-08-21T12:02:57.483Z,68.90
2022-08-21T12:05:32.512Z,62.90
2022-08-21T12:08:04.628Z,59.00
2022-08-21T12:10:42.689Z,60.60
2022-08-21T12:13:40.248Z,61.20
2022-08-21T12:16:15.652Z,59.40
2022-08-21T12:18:44.066Z,62.00
2022-08-21T12:21:28.989Z,62.10
2022-08-21T12:24:13.539Z,63.10
2022-08-21T12:26:55.525Z,64.00
2022-08-21T12:29:34.148Z,63.10
2022-08-21T12:32:49.643Z,63.60
2022-08-21T12:35:25.110Z,65.90
2022-08-21T12:38:18.359Z,64.70
2022-08-21T12:40:55.663Z,63.40
2022-08-21T12:43:40.069Z,61.50
2022-08-21T12:46:06.891Z,62.80
2022-08-21T12:48:46.174Z,59.80
2022-08-21T12:51:16.153Z,58.90
2022-08-21T12:53:49.959Z,62.40
2022-08-21T12:56:22.010Z,61.70
2022-08-21T12:58:52.039Z,60.50
2022-08-21T13:01:39.458Z,61.40
2022-08-21T13:04:13.048Z,60.90
2022-08-21T13:06:45.092Z,61.60
2022-08-21T13:09:15.689Z,61.60
2022-08-21T13:11:44.990Z,62.00
2022-08-21T13:14:38.360Z,62.70
2022-08-21T13:17:12.605Z,61.10
2022-08-21T13:19:39.258Z,62.20
2022-08-21T13:22:33.184Z,62.90
2022-08-21T13:25:00.841Z,63.00
2022-08-21T13:27:33.523Z,65.40
2022-08-21T13:30:04.802Z,67.90
2022-08-21T13:32:33.835Z,66.00
2022-08-21T13:35:08.557Z,64.80
2022-08-21T13:37:36.655Z,65.30
2022-08-21T13:40:03.877Z,64.00
2022-08-21T13:42:30.628Z,65.00
2022-08-21T13:44:57.478Z,64.50
2022-08-21T13:47:24.146Z,64.60
2022-08-21T13:49:57.184Z,62.40
2022-08-21T13:52:27.495Z,63.60
2022-08-21T13:55:20.160Z,65.40
2022-08-21T13:57:47.021Z,67.00
2022-08-21T14:00:17.736Z,66.90
2022-08-21T14:02:48.791Z,63.40
2022-08-21T14:05:25.912Z,63.70
2022-08-21T14:08:03.179Z,65.20
2022-08-21T14:10:31.320Z,64.80
2022-08-21T14:13:04.797Z,67.50
2022-08-21T14:15:33.375Z,67.20
2022-08-21T14:18:29.950Z,68.20
2022-08-21T14:21:08.197Z,67.90
2022-08-21T14:23:35.072Z,66.90
2022-08-21T14:26:04.877Z,67.20
2022-08-21T14:28:39.019Z,66.20
2022-08-21T14:31:22.923Z,67.00
2022-08-21T14:33:49.608Z,67.90
2022-08-21T14:36:16.284Z,66.40
2022-08-21T14:38:43.355Z,66.60
2022-08-21T14:41:16.911Z,66.80
2022-08-21T14:43:45.274Z,67.80
2022-08-21T14:46:13.638Z,67.60
2022-08-21T14:48:40.348Z,67.80
2022-08-21T14:51:07.442Z,68.10
2022-08-21T14:53:34.028Z,68.30
2022-08-21T14:56:07.729Z,69.40
2022-08-21T14:58:38.103Z,70.10
2022-08-21T15:01:07.115Z,70.20
2022-08-21T15:03:34.198Z,70.40
2022-08-21T15:06:01.519Z,70.60
2022-08-21T15:08:28.169Z,70.20
2022-08-21T15:11:11.169Z,70.60
2022-08-21T15:13:39.846Z,71.50
2022-08-21T15:16:06.640Z,71.70
2022-08-21T15:18:33.324Z,72.40
2022-08-21T15:21:00.090Z,72.60
2022-08-21T15:23:26.728Z,73.30
2022-08-21T15:25:54.206Z,73.50
2022-08-21T15:28:22.496Z,73.80
2022-08-21T15:30:50.280Z,74.20
2022-08-21T15:33:17.086Z,74.50
2022-08-21T15:35:44.620Z,74.80
2022-08-21T15:38:11.551Z,75.30
2022-08-21T15:40:38.908Z,76.20
2022-08-21T15:43:06.991Z,76.10
2022-08-21T15:45:34.207Z,74.50
2022-08-21T15:48:01.832Z,74.30
2022-08-21T15:50:29.780Z,74.30
2022-08-21T15:52:56.468Z,74.60
2022-08-21T15:55:24.399Z,74.00
2022-08-21T15:57:57.484Z,74.80
2022-08-21T16:00:26.581Z,74.50
2022-08-21T16:02:55.962Z,74.00
2022-08-21T16:05:23.852Z,73.60
2022-08-21T16:07:51.274Z,73.30
2022-08-21T16:10:21.319Z,73.60
2022-08-21T16:12:56.605Z,74.30
2022-08-21T16:15:23.710Z,74.10
2022-08-21T16:17:51.794Z,74.00
2022-08-21T16:20:28.532Z,74.30
2022-08-21T16:22:57.203Z,74.00
2022-08-21T16:25:24.115Z,74.60
2022-08-21T16:27:58.544Z,74.40
2022-08-21T16:30:26.634Z,74.60
2022-08-21T16:32:53.947Z,74.80
2022-08-21T16:35:21.553Z,74.80
2022-08-21T16:37:52.817Z,75.90
2022-08-21T16:40:20.517Z,75.10
2022-08-21T16:42:48.661Z,75.10
2022-08-21T16:45:18.117Z,74.50
2022-08-21T16:47:45.290Z,74.80
2022-08-21T16:50:22.394Z,76.30
2022-08-21T16:52:49.279Z,76.10
2022-08-21T16:55:16.009Z,76.60
2022-08-21T16:57:42.718Z,76.80
2022-08-21T17:00:12.945Z,77.20
2022-08-21T17:02:44.839Z,77.70
2022-08-21T17:05:13.811Z,77.20
2022-08-21T17:07:42.286Z,78.60
2022-08-21T17:10:10.363Z,77.50
2022-08-21T17:12:37.103Z,77.90
2022-08-21T17:15:12.988Z,78.70
2022-08-21T17:17:39.632Z,79.40
2022-08-21T17:20:07.109Z,79.70
2022-08-21T17:22:33.742Z,79.60
2022-08-21T17:25:00.348Z,80.30
2022-08-21T17:27:28.468Z,80.10
2022-08-21T17:29:56.321Z,80.30
2022-08-21T17:32:23.583Z,80.80
2022-08-21T17:34:50.397Z,81.20
2022-08-21T17:37:17.052Z,81.50
2022-08-21T17:39:43.748Z,81.50
2022-08-21T17:42:13.545Z,81.40
2022-08-21T17:44:42.817Z,81.80
2022-08-21T17:47:10.285Z,82.80
2022-08-21T17:49:36.961Z,84.20
2022-08-21T17:52:04.772Z,85.20
2022-08-21T17:54:31.656Z,84.60
2022-08-21T17:56:58.502Z,83.20
2022-08-21T17:59:25.572Z,83.10
2022-08-21T18:01:54.300Z,83.00
2022-08-21T18:04:20.935Z,84.70
2022-08-21T18:06:47.588Z,87.10
2022-08-21T18:09:14.515Z,88.20
2022-08-21T18:11:43.033Z,88.80
2022-08-21T18:14:10.907Z,89.70
2022-08-21T18:16:38.199Z,90.30
2022-08-21T18:19:09.872Z,90.40
2022-08-21T18:21:36.524Z,90.60
2022-08-21T18:24:03.923Z,91.00
2022-08-21T18:26:35.145Z,91.20
2022-08-21T18:29:05.242Z,91.60
2022-08-21T18:31:33.739Z,91.70
2022-08-21T18:34:06.012Z,92.80
2022-08-21T18:36:32.904Z,93.10
2022-08-21T18:39:19.425Z,93.60
2022-08-21T18:41:47.786Z,94.30
2022-08-21T18:44:16.606Z,94.90
2022-08-21T18:46:49.354Z,95.40
2022-08-21T18:49:16.015Z,95.90
2022-08-21T18:51:45.394Z,96.30
2022-08-21T18:54:12.982Z,97.10
2022-08-21T18:56:40.846Z,97.20
2022-08-21T18:59:07.876Z,97.70
2022-08-21T19:01:34.551Z,97.60
2022-08-21T19:04:01.181Z,98.00
2022-08-21T19:06:28.778Z,98.60
2022-08-21T19:08:56.056Z,99.10
2022-08-21T19:11:25.035Z,99.30
2022-08-21T19:13:53.511Z,99.70
2022-08-21T19:16:21.818Z,99.90
2022-08-21T19:18:48.566Z,99.90
2022-08-21T19:21:16.322Z,99.90
2022-08-21T19:23:44.329Z,99.90
2022-08-21T19:26:12.064Z,99.90
2022-08-21T19:28:45.031Z,99.90
2022-08-21T19:31:24.407Z,99.90
2022-08-21T19:33:58.940Z,99.90
2022-08-21T19:36:28.860Z,99.90
2022-08-21T19:38:55.691Z,99.90
2022-08-21T19:41:27.754Z,99.90
2022-08-21T19:43:59.538Z,99.90
2022-08-21T19:46:35.101Z,99.90
2022-08-21T19:49:04.420Z,99.90
2022-08-21T19:51:34.566Z,99.90
2022-08-21T19:54:01.922Z,99.90
2022-08-21T19:56:32.382Z,99.90
2022-08-21T19:59:03.920Z,99.90
2022-08-21T20:01:32.784Z,99.90
2022-08-21T20:03:59.511Z,99.90
2022-08-21T20:06:26.620Z,99.90
2022-08-21T20:08:55.178Z,99.90
2022-08-21T20:11:31.499Z,99.90
2022-08-21T20:13:58.847Z,99.90
2022-08-21T20:16:27.475Z,99.90
2022-08-21T20:18:54.274Z,99.90
2022-08-21T20:21:20.884Z,99.90
2022-08-21T20:23:48.854Z,99.90
2022-08-21T20:26:16.570Z,99.90
2022-08-21T20:28:43.216Z,99.90
2022-08-21T20:31:10.552Z,99.90
2022-08-21T20:33:37.954Z,99.90
2022-08-21T20:36:04.847Z,99.90
2022-08-21T20:38:31.722Z,99.90
2022-08-21T20:40:58.704Z,99.90
2022-08-21T20:43:26.772Z,99.90
2022-08-21T20:45:55.026Z,99.90
2022-08-21T20:48:32.761Z,99.90
2022-08-21T20:51:42.538Z,99.90
2022-08-21T20:54:38.894Z,99.90
2022-08-21T20:57:13.620Z,99.90
2022-08-21T20:59:58.838Z,99.90
2022-08-21T21:02:38.868Z,99.90
2022-08-21T21:05:23.648Z,99.90
2022-08-21T21:08:07.017Z,99.90
2022-08-21T21:10:51.144Z,99.90
2022-08-21T21:13:32.398Z,99.90
2022-08-21T21:16:08.353Z,99.90
2022-08-21T21:18:43.684Z,99.90
2022-08-21T21:21:24.624Z,99.90
2022-08-21T21:24:13.234Z,99.90
2022-08-21T21:26:48.806Z,99.90
2022-08-21T21:29:27.152Z,99.90
2022-08-21T21:31:56.788Z,99.90
2022-08-21T21:34:26.703Z,99.90
2022-08-21T21:37:04.653Z,99.90
2022-08-21T21:39:53.072Z,99.90
2022-08-21T21:42:33.171Z,99.90
2022-08-21T21:45:08.823Z,99.90
2022-08-21T21:47:57.058Z,99.90
2022-08-21T21:50:33.019Z,99.90
2022-08-21T21:53:15.958Z,99.90
2022-08-21T21:56:14.885Z,99.90
2022-08-21T21:59:01.739Z,99.90
2022-08-21T22:02:01.950Z,99.90
2022-08-21T22:04:59.098Z,99.90
2022-08-21T22:07:40.616Z,99.90
2022-08-21T22:10:30.633Z,99.90
2022-08-21T22:13:10.576Z,99.90
2022-08-21T22:15:38.554Z,99.90
2022-08-21T22:18:11.559Z,99.90
2022-08-21T22:21:11.667Z,99.90
2022-08-21T22:23:46.329Z,99.90
2022-08-21T22:26:17.704Z,99.90
2022-08-21T22:28:46.578Z,99.90
2022-08-21T22:31:26.054Z,99.90
2022-08-21T22:34:18.407Z,99.90
2022-08-21T22:36:55.308Z,99.90
2022-08-21T22:39:44.530Z,99.90
2022-08-21T22:42:14.242Z,99.90
2022-08-21T22:44:50.877Z,99.90
2022-08-21T22:47:32.042Z,99.90
2022-08-21T22:50:04.321Z,99.90
2022-08-21T22:52:36.843Z,99.90
2022-08-21T22:55:25.281Z,99.90
2022-08-21T22:58:06.068Z,99.90
2022-08-21T23:00:49.191Z,99.90
2022-08-21T23:03:22.157Z,99.90
2022-08-21T23:05:50.446Z,99.90
2022-08-21T23:08:32.944Z,99.90
2022-08-21T23:11:08.718Z,99.90
2022-08-21T23:13:43.146Z,99.90
2022-08-21T23:16:23.703Z,99.90
2022-08-21T23:19:02.666Z,99.90
2022-08-21T23:21:50.062Z,99.90
2022-08-21T23:24:57.792Z,99.90
2022-08-21T23:27:46.980Z,99.90
2022-08-21T23:30:47.081Z,99.90
2022-08-21T23:33:52.492Z,99.90
2022-08-21T23:37:03.694Z,99.90
2022-08-21T23:39:51.501Z,99.90
2022-08-21T23:42:45.679Z,99.90
2022-08-21T23:48:50.083Z,99.90
2022-08-21T23:51:35.380Z,99.90
2022-08-21T23:54:17.427Z,99.90
2022-08-21T23:57:00.114Z,99.90
2022-08-21T23:59:50.775Z,99.90
